createdAt,value
2023-05-14T00:01:39.480Z,13.57
2023-05-14T00:04:06.506Z,10.85
2023-05-14T00:06:33.457Z,10.70
2023-05-14T00:09:00.478Z,11.52
2023-05-14T00:11:27.615Z,12.63
2023-05-14T00:13:54.442Z,13.85
2023-05-14T00:16:21.399Z,14.13
2023-05-14T00:18:48.459Z,12.25
2023-05-14T00:21:15.411Z,12.93
2023-05-14T00:23:42.449Z,14.20
2023-05-14T00:26:09.308Z,12.52
2023-05-14T00:28:37.262Z,12.18
2023-05-14T00:31:04.298Z,12.07
2023-05-14T00:33:31.137Z,11.95
2023-05-14T00:35:57.995Z,11.13
2023-05-14T00:38:27.632Z,11.73
2023-05-14T00:40:54.544Z,11.43
2023-05-14T00:43:22.528Z,12.00
2023-05-14T00:45:55.220Z,10.63
2023-05-14T00:48:23.027Z,13.07
2023-05-14T00:50:51.125Z,11.30
2023-05-14T00:53:21.342Z,12.02
2023-05-14T00:55:50.323Z,11.32
2023-05-14T00:58:18.597Z,10.68
2023-05-14T01:00:45.452Z,10.68
2023-05-14T01:03:12.350Z,11.60
2023-05-14T01:06:09.655Z,11.32
2023-05-14T01:09:13.483Z,12.25
2023-05-14T01:12:05.662Z,12.63
2023-05-14T01:14:52.575Z,10.52
2023-05-14T01:17:22.804Z,12.23
2023-05-14T01:19:52.037Z,13.90
2023-05-14T01:22:19.043Z,12.23
2023-05-14T01:24:45.922Z,11.93
2023-05-14T01:27:42.473Z,13.57
2023-05-14T01:30:34.170Z,11.23
2023-05-14T01:33:06.314Z,10.35
2023-05-14T01:35:33.544Z,13.48
2023-05-14T01:38:02.083Z,12.23
2023-05-14T01:40:29.863Z,14.45
2023-05-14T01:42:57.414Z,11.15
2023-05-14T01:45:24.702Z,14.90
2023-05-14T01:47:51.963Z,11.88
2023-05-14T01:50:19.021Z,12.23
2023-05-14T01:52:45.842Z,13.05
2023-05-14T01:55:12.759Z,12.43
2023-05-14T01:57:39.674Z,12.98
2023-05-14T02:00:07.575Z,12.55
2023-05-14T02:02:41.032Z,12.80
2023-05-14T02:05:10.864Z,20.17
2023-05-14T02:07:37.686Z,11.70
2023-05-14T02:10:05.187Z,12.82
2023-05-14T02:12:31.958Z,13.70
2023-05-14T02:14:58.755Z,13.85
2023-05-14T02:17:26.607Z,11.98
2023-05-14T02:19:54.462Z,11.82
2023-05-14T02:22:21.321Z,11.27
2023-05-14T02:24:49.721Z,11.23
2023-05-14T02:27:17.998Z,13.10
2023-05-14T02:29:44.944Z,14.20
2023-05-14T02:32:11.838Z,12.63
2023-05-14T02:34:39.416Z,12.52
2023-05-14T02:37:06.576Z,14.05
2023-05-14T02:39:33.440Z,14.00
2023-05-14T02:42:00.267Z,11.70
2023-05-14T02:44:27.132Z,13.60
2023-05-14T02:46:53.947Z,13.95
2023-05-14T02:49:20.943Z,11.52
2023-05-14T02:51:47.715Z,12.80
2023-05-14T02:54:16.409Z,12.98
2023-05-14T02:56:43.440Z,14.65
2023-05-14T02:59:10.557Z,15.98
2023-05-14T03:01:37.918Z,13.23
2023-05-14T03:04:05.603Z,15.43
2023-05-14T03:06:32.395Z,15.30
2023-05-14T03:08:59.390Z,13.57
2023-05-14T03:11:26.250Z,13.40
2023-05-14T03:13:53.178Z,13.15
2023-05-14T03:16:20.054Z,13.50
2023-05-14T03:18:46.911Z,11.90
2023-05-14T03:21:13.882Z,12.23
2023-05-14T03:23:40.900Z,12.50
2023-05-14T03:26:08.318Z,14.15
2023-05-14T03:28:35.212Z,14.52
2023-05-14T03:31:02.177Z,11.40
2023-05-14T03:33:31.111Z,12.80
2023-05-14T03:35:57.938Z,12.40
2023-05-14T03:38:24.813Z,12.18
2023-05-14T03:40:51.594Z,14.63
2023-05-14T03:43:18.501Z,12.07
2023-05-14T03:45:45.529Z,15.63
2023-05-14T03:48:12.475Z,13.75
2023-05-14T03:50:39.511Z,13.65
2023-05-14T03:53:06.567Z,16.38
2023-05-14T03:55:33.348Z,14.25
2023-05-14T03:58:00.511Z,17.05
2023-05-14T04:00:27.382Z,17.67
2023-05-14T04:02:54.381Z,14.80
2023-05-14T04:05:23.578Z,14.45
2023-05-14T04:07:52.470Z,14.43
2023-05-14T04:10:20.505Z,17.33
2023-05-14T04:12:47.337Z,17.05
2023-05-14T04:15:14.365Z,16.35
2023-05-14T04:17:42.823Z,15.25
2023-05-14T04:20:10.021Z,16.30
2023-05-14T04:22:36.853Z,14.60
2023-05-14T04:25:03.716Z,17.42
2023-05-14T04:27:30.714Z,16.10
2023-05-14T04:29:58.188Z,14.75
2023-05-14T04:32:25.628Z,16.73
2023-05-14T04:34:52.528Z,19.48
2023-05-14T04:37:19.312Z,18.42
2023-05-14T04:39:46.070Z,15.85
2023-05-14T04:42:13.822Z,16.00
2023-05-14T04:44:40.635Z,21.60
2023-05-14T04:47:07.541Z,19.48
2023-05-14T04:49:34.351Z,21.13
2023-05-14T04:52:02.530Z,17.02
2023-05-14T04:54:29.385Z,16.42
2023-05-14T04:56:56.265Z,18.90
2023-05-14T04:59:23.112Z,15.60
2023-05-14T05:01:50.006Z,17.55
2023-05-14T05:04:16.875Z,17.38
2023-05-14T05:06:43.783Z,15.57
2023-05-14T05:09:10.554Z,17.33
2023-05-14T05:11:38.761Z,21.00
2023-05-14T05:14:05.699Z,16.50
2023-05-14T05:16:32.637Z,18.80
2023-05-14T05:18:59.700Z,19.02
2023-05-14T05:21:26.751Z,18.48
2023-05-14T05:23:53.558Z,19.33
2023-05-14T05:26:22.265Z,20.98
2023-05-14T05:28:49.150Z,17.33
2023-05-14T05:31:20.041Z,18.90
2023-05-14T05:33:47.320Z,19.65
2023-05-14T05:36:14.337Z,17.50
2023-05-14T05:38:41.343Z,18.05
2023-05-14T05:41:08.123Z,21.48
2023-05-14T05:43:37.929Z,19.00
2023-05-14T05:46:04.886Z,19.70
2023-05-14T05:48:32.131Z,21.58
2023-05-14T05:51:02.269Z,21.92
2023-05-14T05:53:29.102Z,20.20
2023-05-14T05:55:56.338Z,21.17
2023-05-14T05:58:23.492Z,21.63
2023-05-14T06:00:50.341Z,20.67
2023-05-14T06:03:17.195Z,19.77
2023-05-14T06:05:44.711Z,18.95
2023-05-14T06:08:11.644Z,22.42
2023-05-14T06:10:38.401Z,21.60
2023-05-14T06:13:05.297Z,22.42
2023-05-14T06:15:32.195Z,28.02
2023-05-14T06:17:59.107Z,23.77
2023-05-14T06:20:26.181Z,23.25
2023-05-14T06:22:53.278Z,22.30
2023-05-14T06:25:20.338Z,20.33
2023-05-14T06:27:47.389Z,22.80
2023-05-14T06:30:14.752Z,23.48
2023-05-14T06:32:41.792Z,18.75
2023-05-14T06:35:09.258Z,19.20
2023-05-14T06:37:36.217Z,18.30
2023-05-14T06:40:03.661Z,19.80
2023-05-14T06:42:30.509Z,19.33
2023-05-14T06:44:58.377Z,24.20
2023-05-14T06:47:25.499Z,23.38
2023-05-14T06:49:52.486Z,23.65
2023-05-14T06:52:19.399Z,22.35
2023-05-14T06:54:46.378Z,24.60
2023-05-14T06:57:14.180Z,24.27
2023-05-14T06:59:41.285Z,25.83
2023-05-14T07:02:08.152Z,20.38
2023-05-14T07:04:35.091Z,23.98
2023-05-14T07:07:02.066Z,23.30
2023-05-14T07:09:28.823Z,22.77
2023-05-14T07:11:55.697Z,24.23
2023-05-14T07:14:22.453Z,20.15
2023-05-14T07:16:49.325Z,23.08
2023-05-14T07:19:16.290Z,23.15
2023-05-14T07:21:43.167Z,20.63
2023-05-14T07:24:09.978Z,22.83
2023-05-14T07:26:36.899Z,23.63
2023-05-14T07:29:03.729Z,21.70
2023-05-14T07:31:30.905Z,20.40
2023-05-14T07:33:58.000Z,23.40
2023-05-14T07:36:25.285Z,22.80
2023-05-14T07:38:52.117Z,22.13
2023-05-14T07:41:19.008Z,24.88
2023-05-14T07:43:46.132Z,23.98
2023-05-14T07:46:13.003Z,27.95
2023-05-14T07:48:39.912Z,26.60
2023-05-14T07:51:07.012Z,26.60
2023-05-14T07:53:33.827Z,28.50
2023-05-14T07:56:00.966Z,21.77
2023-05-14T07:58:28.829Z,22.00
2023-05-14T08:00:56.749Z,21.25
2023-05-14T08:03:23.873Z,17.98
2023-05-14T08:05:51.760Z,18.25
2023-05-14T08:08:18.562Z,19.83
2023-05-14T08:10:45.552Z,18.17
2023-05-14T08:13:12.392Z,22.05
2023-05-14T08:15:39.195Z,21.95
2023-05-14T08:18:06.179Z,28.60
2023-05-14T08:20:33.129Z,29.55
2023-05-14T08:22:59.901Z,22.92
2023-05-14T08:25:26.790Z,18.48
2023-05-14T08:27:54.222Z,21.08
2023-05-14T08:30:22.767Z,17.77
2023-05-14T08:32:49.946Z,18.05
2023-05-14T08:35:17.943Z,20.75
2023-05-14T08:37:44.982Z,17.05
2023-05-14T08:40:13.222Z,17.60
2023-05-14T08:42:44.812Z,21.10
2023-05-14T08:45:19.410Z,15.75
2023-05-14T08:47:50.933Z,16.08
2023-05-14T08:50:22.413Z,14.93
2023-05-14T08:52:50.197Z,17.52
2023-05-14T08:55:17.438Z,17.63
2023-05-14T08:57:44.955Z,24.48
2023-05-14T09:00:12.418Z,24.75
2023-05-14T09:02:44.229Z,24.90
2023-05-14T09:05:11.294Z,16.67
2023-05-14T09:07:38.464Z,15.20
2023-05-14T09:10:06.036Z,15.85
2023-05-14T09:12:32.906Z,13.32
2023-05-14T09:14:59.725Z,16.45
2023-05-14T09:17:30.028Z,14.98
2023-05-14T09:19:56.939Z,13.70
2023-05-14T09:22:23.828Z,17.52
2023-05-14T09:25:03.779Z,15.52
2023-05-14T09:27:31.975Z,14.40
2023-05-14T09:30:12.538Z,18.73
2023-05-14T09:32:41.378Z,16.08
2023-05-14T09:35:22.508Z,13.80
2023-05-14T09:37:54.966Z,16.25
2023-05-14T09:40:24.370Z,13.90
2023-05-14T09:42:51.513Z,14.35
2023-05-14T09:45:18.461Z,17.00
2023-05-14T09:47:45.670Z,16.63
2023-05-14T09:50:13.236Z,14.27
2023-05-14T09:52:40.303Z,16.73
2023-05-14T09:55:08.048Z,19.77
2023-05-14T09:57:35.379Z,17.38
2023-05-14T10:00:02.311Z,14.88
2023-05-14T10:02:37.672Z,14.82
2023-05-14T10:05:07.098Z,13.57
2023-05-14T10:07:44.467Z,16.13
2023-05-14T10:10:15.632Z,15.55
2023-05-14T10:12:46.760Z,13.63
2023-05-14T10:15:19.522Z,12.13
2023-05-14T10:17:53.126Z,13.80
2023-05-14T10:20:22.849Z,14.88
2023-05-14T10:22:50.593Z,11.93
2023-05-14T10:25:17.589Z,16.13
2023-05-14T10:27:44.926Z,11.88
2023-05-14T10:30:12.858Z,14.43
2023-05-14T10:32:41.824Z,15.75
2023-05-14T10:35:25.392Z,13.90
2023-05-14T10:37:52.256Z,17.02
2023-05-14T10:40:20.609Z,18.95
2023-05-14T10:42:47.833Z,14.95
2023-05-14T10:45:15.756Z,16.10
2023-05-14T10:47:45.381Z,13.98
2023-05-14T10:50:14.350Z,12.40
2023-05-14T10:52:43.541Z,12.40
2023-05-14T10:55:14.091Z,14.18
2023-05-14T10:57:43.738Z,13.82
2023-05-14T11:00:14.011Z,13.57
2023-05-14T11:02:42.982Z,12.60
2023-05-14T11:05:17.787Z,12.77
2023-05-14T11:07:47.094Z,13.48
2023-05-14T11:10:22.277Z,11.65
2023-05-14T11:12:51.416Z,12.10
2023-05-14T11:15:20.659Z,9.68
2023-05-14T11:17:49.453Z,15.48
2023-05-14T11:20:17.175Z,12.63
2023-05-14T11:22:45.374Z,8.82
2023-05-14T11:25:18.333Z,10.82
2023-05-14T11:27:46.881Z,15.98
2023-05-14T11:30:16.042Z,10.63
2023-05-14T11:32:46.033Z,11.02
2023-05-14T11:35:13.642Z,15.20
2023-05-14T11:37:40.739Z,11.43
2023-05-14T11:40:13.899Z,13.93
2023-05-14T11:42:40.755Z,11.80
2023-05-14T11:45:11.833Z,13.05
2023-05-14T11:47:39.214Z,14.23
2023-05-14T11:50:09.127Z,15.95
2023-05-14T11:52:42.251Z,16.77
2023-05-14T11:55:12.866Z,14.65
2023-05-14T11:57:40.895Z,18.23
2023-05-14T12:00:16.937Z,17.15
2023-05-14T12:02:43.998Z,13.48
2023-05-14T12:05:13.393Z,12.98
2023-05-14T12:07:41.899Z,10.88
2023-05-14T12:10:09.049Z,10.20
2023-05-14T12:12:39.432Z,10.88
2023-05-14T12:15:13.842Z,13.02
2023-05-14T12:17:41.513Z,11.00
2023-05-14T12:20:12.334Z,10.63
2023-05-14T12:22:41.432Z,9.75
2023-05-14T12:25:15.849Z,20.08
2023-05-14T12:27:45.525Z,27.92
2023-05-14T12:30:21.283Z,23.25
2023-05-14T12:32:51.660Z,18.27
2023-05-14T12:35:19.041Z,10.88
2023-05-14T12:37:45.937Z,13.43
2023-05-14T12:40:12.967Z,16.35
2023-05-14T12:42:39.986Z,12.60
2023-05-14T12:45:08.461Z,13.65
2023-05-14T12:47:36.181Z,11.00
2023-05-14T12:50:03.601Z,11.90
2023-05-14T12:52:37.530Z,12.63
2023-05-14T12:55:07.418Z,10.52
2023-05-14T12:57:35.459Z,10.95
2023-05-14T13:00:06.830Z,11.10
2023-05-14T13:02:43.193Z,12.00
2023-05-14T13:05:11.650Z,12.63
2023-05-14T13:07:38.908Z,10.48
2023-05-14T13:10:06.620Z,12.27
2023-05-14T13:12:33.485Z,13.90
2023-05-14T13:15:00.517Z,12.00
2023-05-14T13:17:27.566Z,12.00
2023-05-14T13:19:54.561Z,14.90
2023-05-14T13:22:21.412Z,11.75
2023-05-14T13:24:48.278Z,11.85
2023-05-14T13:27:16.377Z,14.15
2023-05-14T13:29:43.320Z,12.93
2023-05-14T13:32:12.426Z,11.27
2023-05-14T13:34:39.613Z,12.90
2023-05-14T13:37:07.514Z,12.23
2023-05-14T13:39:34.419Z,12.57
2023-05-14T13:42:01.326Z,10.52
2023-05-14T13:44:28.223Z,9.75
2023-05-14T13:46:55.194Z,10.25
2023-05-14T13:49:22.413Z,12.27
2023-05-14T13:51:49.272Z,10.38
2023-05-14T13:54:16.170Z,10.45
2023-05-14T13:56:43.016Z,12.80
2023-05-14T13:59:11.373Z,11.10
2023-05-14T14:01:38.350Z,9.15
2023-05-14T14:04:05.401Z,12.82
2023-05-14T14:06:33.284Z,10.98
2023-05-14T14:09:00.352Z,9.32
2023-05-14T14:11:27.745Z,9.80
2023-05-14T14:13:54.688Z,10.38
2023-05-14T14:16:25.412Z,10.63
2023-05-14T14:18:52.504Z,10.38
2023-05-14T14:21:20.934Z,11.45
2023-05-14T14:23:48.123Z,12.00
2023-05-14T14:26:14.918Z,10.45
2023-05-14T14:28:42.021Z,12.52
2023-05-14T14:31:08.954Z,10.65
2023-05-14T14:33:35.861Z,10.13
2023-05-14T14:36:02.718Z,12.45
2023-05-14T14:38:29.532Z,9.80
2023-05-14T14:40:57.543Z,8.77
2023-05-14T14:43:24.752Z,7.95
2023-05-14T14:45:51.586Z,7.70
2023-05-14T14:48:33.890Z,7.93
2023-05-14T14:51:01.477Z,8.95
2023-05-14T14:53:28.379Z,8.73
2023-05-14T14:55:56.228Z,7.93
2023-05-14T14:58:23.932Z,7.10
2023-05-14T15:00:53.398Z,6.40
2023-05-14T15:03:21.290Z,7.28
2023-05-14T15:05:48.873Z,7.03
2023-05-14T15:08:15.933Z,8.73
2023-05-14T15:10:44.093Z,12.32
2023-05-14T15:13:12.332Z,10.98
2023-05-14T15:15:39.177Z,9.13
2023-05-14T15:18:06.145Z,9.93
2023-05-14T15:20:33.139Z,8.00
2023-05-14T15:23:00.058Z,7.22
2023-05-14T15:25:27.338Z,7.10
2023-05-14T15:27:54.250Z,10.07
2023-05-14T15:30:21.059Z,11.27
2023-05-14T15:32:47.957Z,6.57
2023-05-14T15:35:14.908Z,7.93
2023-05-14T15:37:43.755Z,9.30
2023-05-14T15:40:11.792Z,9.20
2023-05-14T15:42:41.854Z,12.63
2023-05-14T15:45:10.329Z,14.32
2023-05-14T15:47:37.381Z,9.35
2023-05-14T15:50:05.329Z,8.70
2023-05-14T15:52:32.466Z,8.23
2023-05-14T15:54:59.618Z,10.60
2023-05-14T15:57:27.466Z,8.68
2023-05-14T15:59:54.331Z,13.52
2023-05-14T16:02:21.143Z,10.05
2023-05-14T16:04:49.452Z,8.43
2023-05-14T16:07:16.433Z,8.00
2023-05-14T16:09:43.469Z,8.38
2023-05-14T16:12:10.521Z,7.88
2023-05-14T16:14:38.330Z,8.02
2023-05-14T16:17:06.361Z,8.27
2023-05-14T16:19:33.174Z,7.75
2023-05-14T16:21:59.937Z,10.23
2023-05-14T16:24:26.916Z,11.20
2023-05-14T16:26:54.108Z,9.65
2023-05-14T16:29:20.904Z,11.32
2023-05-14T16:31:47.737Z,8.50
2023-05-14T16:34:14.637Z,9.20
2023-05-14T16:36:41.482Z,8.57
2023-05-14T16:39:08.717Z,10.07
2023-05-14T16:41:36.075Z,9.70
2023-05-14T16:44:04.096Z,10.13
2023-05-14T16:46:32.441Z,10.23
2023-05-14T16:48:59.396Z,10.48
2023-05-14T16:51:26.212Z,11.05
2023-05-14T16:53:55.457Z,13.38
2023-05-14T16:56:22.708Z,10.77
2023-05-14T16:58:49.811Z,10.38
2023-05-14T17:01:16.696Z,9.27
2023-05-14T17:03:45.506Z,9.05
2023-05-14T17:06:12.420Z,17.15
2023-05-14T17:08:39.621Z,12.45
2023-05-14T17:11:06.523Z,12.38
2023-05-14T17:13:34.117Z,9.82
2023-05-14T17:16:02.136Z,10.88
2023-05-14T17:18:29.159Z,11.95
2023-05-14T17:20:56.034Z,11.38
2023-05-14T17:23:23.020Z,12.77
2023-05-14T17:25:50.127Z,11.15
2023-05-14T17:28:17.058Z,9.27
2023-05-14T17:30:43.924Z,10.13
2023-05-14T17:33:11.699Z,9.32
2023-05-14T17:35:38.891Z,9.68
2023-05-14T17:38:06.042Z,9.88
2023-05-14T17:40:33.492Z,8.65
2023-05-14T17:43:00.847Z,10.32
2023-05-14T17:45:29.489Z,12.15
2023-05-14T17:47:59.212Z,9.13
2023-05-14T17:50:26.088Z,9.48
2023-05-14T17:52:53.652Z,9.02
2023-05-14T17:55:21.295Z,8.88
2023-05-14T17:57:48.250Z,9.82
2023-05-14T18:00:15.255Z,9.93
2023-05-14T18:02:42.168Z,9.45
2023-05-14T18:05:09.222Z,8.30
2023-05-14T18:07:36.692Z,8.65
2023-05-14T18:10:04.248Z,10.85
2023-05-14T18:12:31.178Z,8.55
2023-05-14T18:14:58.053Z,8.68
2023-05-14T18:17:24.917Z,11.25
2023-05-14T18:19:51.841Z,9.77
2023-05-14T18:22:21.355Z,10.43
2023-05-14T18:24:48.169Z,11.95
2023-05-14T18:27:15.059Z,9.07
2023-05-14T18:29:42.737Z,8.85
2023-05-14T18:32:09.797Z,11.52
2023-05-14T18:34:36.693Z,12.52
2023-05-14T18:37:03.667Z,9.65
2023-05-14T18:39:30.471Z,8.48
2023-05-14T18:41:57.473Z,11.45
2023-05-14T18:44:24.269Z,10.48
2023-05-14T18:46:51.381Z,9.23
2023-05-14T18:49:18.191Z,10.32
2023-05-14T18:51:45.242Z,8.82
2023-05-14T18:54:14.480Z,8.77
2023-05-14T18:56:46.826Z,10.15
2023-05-14T18:59:14.766Z,9.73
2023-05-14T19:01:41.620Z,11.65
2023-05-14T19:04:08.589Z,13.13
2023-05-14T19:06:36.191Z,12.25
2023-05-14T19:09:04.196Z,10.30
2023-05-14T19:11:31.033Z,11.05
2023-05-14T19:13:58.091Z,10.35
2023-05-14T19:16:24.986Z,10.98
2023-05-14T19:18:52.322Z,10.95
2023-05-14T19:21:19.209Z,10.45
2023-05-14T19:23:46.041Z,10.18
2023-05-14T19:26:12.933Z,13.20
2023-05-14T19:28:40.414Z,11.57
2023-05-14T19:31:07.257Z,10.18
2023-05-14T19:33:34.463Z,12.05
2023-05-14T19:36:01.384Z,13.07
2023-05-14T19:38:29.608Z,13.55
2023-05-14T19:40:57.368Z,10.93
2023-05-14T19:43:25.645Z,23.52
2023-05-14T19:45:52.708Z,38.55
2023-05-14T19:48:20.005Z,21.92
2023-05-14T19:50:47.397Z,13.73
2023-05-14T19:53:14.682Z,11.80
2023-05-14T19:55:41.805Z,11.27
2023-05-14T19:58:09.025Z,10.48
2023-05-14T20:00:36.873Z,11.38
2023-05-14T20:03:04.324Z,10.15
2023-05-14T20:05:32.024Z,14.35
2023-05-14T20:07:58.899Z,11.43
2023-05-14T20:10:25.957Z,11.93
2023-05-14T20:12:53.112Z,12.82
2023-05-14T20:15:20.799Z,13.75
2023-05-14T20:17:47.690Z,12.13
2023-05-14T20:20:14.588Z,10.68
2023-05-14T20:22:42.767Z,14.18
2023-05-14T20:25:10.149Z,11.18
2023-05-14T20:27:37.188Z,13.70
2023-05-14T20:30:04.576Z,11.98
2023-05-14T20:32:31.468Z,11.88
2023-05-14T20:35:01.969Z,14.40
2023-05-14T20:37:33.055Z,11.93
2023-05-14T20:42:27.354Z,14.23
2023-05-14T20:44:54.969Z,13.45
2023-05-14T20:47:26.415Z,18.48
2023-05-14T20:49:53.451Z,19.48
2023-05-14T20:52:20.400Z,16.75
2023-05-14T20:54:47.337Z,11.57
2023-05-14T20:57:15.968Z,12.48
2023-05-14T20:59:43.067Z,12.07
2023-05-14T21:02:10.674Z,11.85
2023-05-14T21:04:38.152Z,12.90
2023-05-14T21:07:05.522Z,12.38
2023-05-14T21:09:32.321Z,13.93
2023-05-14T21:11:59.198Z,12.68
2023-05-14T21:14:26.100Z,12.02
2023-05-14T21:16:52.854Z,12.90
2023-05-14T21:19:19.853Z,11.30
2023-05-14T21:21:47.350Z,13.32
2023-05-14T21:24:16.610Z,14.23
2023-05-14T21:26:43.732Z,11.10
2023-05-14T21:29:11.058Z,11.52
2023-05-14T21:31:37.863Z,13.30
2023-05-14T21:34:04.801Z,13.75
2023-05-14T21:36:31.799Z,10.40
2023-05-14T21:38:58.636Z,14.48
2023-05-14T21:41:25.514Z,14.85
2023-05-14T21:43:52.486Z,13.32
2023-05-14T21:46:19.405Z,13.23
2023-05-14T21:48:46.343Z,11.73
2023-05-14T21:51:13.346Z,13.32
2023-05-14T21:53:40.215Z,14.40
2023-05-14T21:56:08.175Z,12.90
2023-05-14T21:58:35.705Z,12.25
2023-05-14T22:01:02.585Z,14.52
2023-05-14T22:03:29.557Z,14.25
2023-05-14T22:05:56.739Z,16.85
2023-05-14T22:08:23.996Z,16.67
2023-05-14T22:10:50.991Z,14.85
2023-05-14T22:13:17.883Z,15.27
2023-05-14T22:15:44.885Z,14.85
2023-05-14T22:18:12.820Z,14.05
2023-05-14T22:20:40.010Z,14.57
2023-05-14T22:23:07.116Z,12.68
2023-05-14T22:25:34.147Z,11.65
2023-05-14T22:28:01.002Z,15.15
2023-05-14T22:30:27.847Z,11.65
2023-05-14T22:32:54.792Z,14.63
2023-05-14T22:35:21.633Z,13.30
2023-05-14T22:37:48.602Z,12.82
2023-05-14T22:40:15.548Z,13.27
2023-05-14T22:42:42.394Z,15.35
2023-05-14T22:45:09.663Z,15.15
2023-05-14T22:47:37.999Z,15.90
2023-05-14T22:50:11.119Z,13.95
2023-05-14T22:52:39.138Z,14.52
2023-05-14T22:55:06.513Z,14.40
2023-05-14T22:57:34.361Z,18.08
2023-05-14T23:00:01.373Z,14.80
2023-05-14T23:02:28.415Z,15.60
2023-05-14T23:04:55.462Z,18.05
2023-05-14T23:07:22.680Z,14.18
2023-05-14T23:09:49.489Z,17.63
2023-05-14T23:12:16.356Z,16.15
2023-05-14T23:14:43.145Z,13.18
2023-05-14T23:17:10.009Z,16.17
2023-05-14T23:19:36.912Z,16.08
2023-05-14T23:22:03.972Z,13.60
2023-05-14T23:24:30.771Z,14.98
2023-05-14T23:26:57.635Z,15.95
2023-05-14T23:29:24.445Z,16.35
2023-05-14T23:31:51.422Z,16.00
2023-05-14T23:34:18.435Z,16.90
2023-05-14T23:36:45.514Z,17.15
2023-05-14T23:39:12.434Z,14.88
2023-05-14T23:41:39.279Z,15.20
2023-05-14T23:44:06.161Z,17.40
2023-05-14T23:46:33.429Z,16.13
2023-05-14T23:49:00.822Z,14.55
2023-05-14T23:51:27.754Z,13.65
2023-05-14T23:53:58.224Z,12.25
2023-05-14T23:56:26.126Z,16.83
2023-05-14T23:58:53.259Z,16.00
